Paulsboro, NJ

1:17 PM EST en Enero 25, 2015 (GMT -0500)
FORD | Change Station
CLOSE
Current Station
Estación meteorológica personal
Location: Woodbury, NJ
Altura: 33 ft
Estaciones meteorológicas cercanas
Aviso en curso: Winter Storm Watch

Alt 33 ft 39.85 °N, 75.16 °W | Updated 11 minutes ago

Mostly Cloudy
Muy nublado
46.6 ° F
Sensación térmica 45 ° F
N
4.2
Viento Variable Viento desde Oeste

Hoy
Alta -- | Baja -- ° F
--% Posibilidad de precipitaciones
Ayer
Alta -- | Baja -- ° F
Precip. -- pul
7:15 AM 5:11 PM
Creciente, 34% visible
Presión 29.81 pul
Visibilidad 10.0 Millas
Nubes Baja 4000 ft
Nubes dispersas 12000 ft
Muy nublado 19000 ft
Muy nublado 26000 ft
Vientos helados 45 ° F
Punto de rocío 33 ° F
Humedad 59%
Precipitaciones 0.00 pul
Espesor de la nieve No disponible.
UV 2 de una escala de 12
Polen .10 de una escala de 12
Calidad del aire No disponible.
Flu Activity No disponible.
METAR KPHL 251754Z 30011G18KT 10SM FEW040 SCT120 BKN190 BKN260 08/M02 A2981 RMK AO2 SLP092 T00781017 10078 20022 50001

More Conditions Fewer Conditions

Presión 29.81 pul
Visibilidad 10.0 Millas
Nubes Baja 4000 ft
Nubes dispersas 12000 ft
Muy nublado 19000 ft
Muy nublado 26000 ft
Vientos helados 45 ° F
Punto de rocío 33 ° F
Humedad 59%
Precipitaciones 0.00 pul
Espesor de la nieve No disponible.
UV 2 de una escala de 12
Polen .10 de una escala de 12
Calidad del aire No disponible.
Flu Activity No disponible.
METAR KPHL 251754Z 30011G18KT 10SM FEW040 SCT120 BKN190 BKN260 08/M02 A2981 RMK AO2 SLP092 T00781017 10078 20022 50001

More Conditions Fewer Conditions

10-Day Weather Forecast

Almanac

Astronomía

Jan. 25, 2015 Salida Puesta
Hora real
Crepúsculo civil
Crepúsculo náutico
Crepúsculo astronómico
Luna
Horas de luz
Horas de luz
Tomorrow will be .
, % of the Moon is Illuminated

Extremos de hoy

Máximos del estado Bajos del estado

Community

WunderPhotos

Upload Photos

1,790,011 ¡fotos cargadas!

WunderBlogs® & News

Nearby

Calidad del aire

  Calidad del aire Índice AQ Contaminante
Not available.

Grosos de nieve

Estación Profundido Altura

Actividad de terremotos

Ciudad Distance Mag. Tiempo y dato
Magnitud mínima muestra es 2,5.

Temperaturas de aguas costeras

Lugar Temperatura

Estaciones meteorológicas cercanas